Los Angeles International Airport
KLAX : now visible

Airfield :











YOU CAN JOIN US ON...

 
LOGIN :

Register | Disclaimer

   EN    FR    IT 

 









Legend :    VFR   Marginal VFR   IFR   Intensive IFR   Very Intensive IFR
Visi :
Ceiling :
>= 8 km
>= 3000ft
5 to 8 km
1000 to 3000 ft
1500m to 5 km
500 to 1000 ft
800 to 1500m
200 to 500 ft
< 800m
< 200 ft
Symbols :   Thunderstorms  Fog  Heavy snow  Heavy precipitations  Wind > 20 kt






- Airport Elevation : 125 ft
- IATA code : LAX


KLAX - Los Angeles International

CURRENT METAR :
  • 151653Z VRB03KT 4SM HZ FEW010 BKN015 BKN140 18/13 A3012 RMK AO2 SLP199 BKN015 V SCT T01780128

EXPIRED METARs :
  • 151641Z VRB05KT 4SM HZ FEW012 BKN018 BKN140 17/13 A3012 RMK AO2 BKN018 V SCT T01720128
  • 151609Z VRB03KT 4SM HZ SCT018 BKN140 17/13 A3012 RMK AO2 T01720133 $
  • 151553Z 01004KT 3SM BR FEW009 BKN019 BKN140 17/13 A3012 RMK AO2 SLP199 T01670133 $
  • 151546Z 01004KT 3SM BR FEW009 BKN019 BKN140 17/13 A3012 RMK AO2 T01670133 $
  • 151453Z 01004KT 2 1/2SM BR FEW008 BKN015 BKN140 16/13 A3011 RMK AO2 SLP195 T01560128 53003 $

TAF KLAX
Valid from the 15 at 18:00 until the 17 at 00:00 UTC


151729Z 1518/1624 VRB03KT 4SM HZ BKN015 BKN200
FM152000 27010KT P6SM FEW020 BKN200
FM160300 VRB03KT P6SM SCT200
FM162000 27010KT P6SM SCT200



MET'MAP, your aeronautical weather chart ! - Copyright ORBIFLY December 2007 - Disclaimer

ORBIFLY MET'MAP TEAM :

Programming & Development : Alexandra Zaïnal
Concept & Development : Baudouin d'Aumeries
Co-Development & Prog : Marc-Olivier Méhu
Technical & hardware support : Manuel Goepfert

Contact : metmap@orbifly.com




SOURCES & CREDITS :

   NOAA       Earth
Advisory